Time;durP1;ratioP1;P1;durP2;ratioP2;P2;SDS_P1;SDS_P2;PMS_P1;PMS_P2;Temp;Humidity;BMP_temperature;BMP_pressure;BME280_temperature;BME280_humidity;BME280_pressure;Samples;Min_cycle;Max_cycle;Signal;HPM_P1;HPM_P2
2022/08/28 00:00:51;;;;;;;4.60;4.10;;;;;;;;;;108477;1299;23165;-24
2022/08/28 00:03:17;;;;;;;5.20;4.50;;;;;;;;;;108705;1298;22526;-28
2022/08/28 00:05:43;;;;;;;10.70;6.60;;;;;;;;;;108721;1299;22875;-28
2022/08/28 00:08:09;;;;;;;8.20;4.00;;;;;;;;;;108744;1297;23257;-24
2022/08/28 00:10:34;;;;;;;9.40;3.80;;;;;;;;;;108743;1297;22098;-28
2022/08/28 00:13:00;;;;;;;9.90;5.90;;;;;;;;;;108722;1298;23225;-28
2022/08/28 00:15:27;;;;;;;9.30;4.20;;;;;;;;;;108685;1304;22604;-24
2022/08/28 00:17:53;;;;;;;6.20;4.70;;;;;;;;;;108712;1297;22581;-28
2022/08/28 00:20:19;;;;;;;4.20;3.70;;;;;;;;;;108751;1297;22801;-24
2022/08/28 00:22:45;;;;;;;5.80;4.30;;;;;;;;;;108758;1297;22547;-24
2022/08/28 00:25:10;;;;;;;5.90;4.60;;;;;;;;;;108673;1297;22424;-28
2022/08/28 00:30:05;;;;;;;7.30;4.30;;;;;;;;;;108056;1298;23252;-28
2022/08/28 00:32:33;;;;;;;7.90;4.40;;;;;;;;;;108697;1304;22454;-25
2022/08/28 00:35:00;;;;;;;4.60;3.50;;;;;;;;;;108708;1297;23732;-24
2022/08/28 00:37:26;;;;;;;5.10;3.40;;;;;;;;;;108714;1297;22656;-24
2022/08/28 00:39:52;;;;;;;4.40;3.60;;;;;;;;;;108719;1304;22393;-28
2022/08/28 00:42:18;;;;;;;6.00;5.00;;;;;;;;;;108684;1299;23279;-28
2022/08/28 00:44:44;;;;;;;10.90;4.70;;;;;;;;;;108767;1297;22531;-28
2022/08/28 00:47:10;;;;;;;10.20;4.70;;;;;;;;;;108735;1297;23223;-24
2022/08/28 00:49:36;;;;;;;6.30;3.80;;;;;;;;;;108613;1297;22549;-28
2022/08/28 00:52:04;;;;;;;5.80;4.90;;;;;;;;;;108753;1298;23250;-28
2022/08/28 00:54:32;;;;;;;5.30;3.60;;;;;;;;;;108777;1298;23306;-24
2022/08/28 00:56:57;;;;;;;5.70;3.40;;;;;;;;;;108720;1304;22562;-24
2022/08/28 00:59:23;;;;;;;4.90;4.20;;;;;;;;;;108729;1298;23589;-24
2022/08/28 01:01:52;;;;;;;3.90;3.40;;;;;;;;;;108720;1297;22513;-24
2022/08/28 01:04:17;;;;;;;6.30;4.00;;;;;;;;;;108202;1297;22516;-28
2022/08/28 01:06:44;;;;;;;6.30;4.30;;;;;;;;;;107818;1298;23059;-24
2022/08/28 01:09:11;;;;;;;4.70;4.20;;;;;;;;;;108463;1304;23265;-24
2022/08/28 01:11:39;;;;;;;7.70;5.10;;;;;;;;;;108724;1297;23095;-24
2022/08/28 01:14:04;;;;;;;7.20;6.00;;;;;;;;;;108700;1297;23236;-28
2022/08/28 01:16:30;;;;;;;5.50;4.60;;;;;;;;;;108714;1297;22500;-28
2022/08/28 01:18:56;;;;;;;6.70;6.10;;;;;;;;;;108737;1297;23184;-28
2022/08/28 01:21:26;;;;;;;8.30;6.60;;;;;;;;;;108685;1297;23207;-27
2022/08/28 01:23:56;;;;;;;7.10;5.10;;;;;;;;;;108688;1297;23394;-24
2022/08/28 01:26:22;;;;;;;6.10;4.90;;;;;;;;;;108352;1298;22849;-28
2022/08/28 01:28:48;;;;;;;9.50;6.40;;;;;;;;;;108681;1297;22449;-28
2022/08/28 01:31:14;;;;;;;9.10;4.70;;;;;;;;;;108736;1297;23080;-28
2022/08/28 01:33:40;;;;;;;6.10;5.20;;;;;;;;;;108709;1297;23370;-28
2022/08/28 01:36:06;;;;;;;7.90;5.50;;;;;;;;;;108738;1297;23214;-24
2022/08/28 01:38:31;;;;;;;6.00;5.30;;;;;;;;;;108699;1297;23354;-24
2022/08/28 01:40:57;;;;;;;7.10;5.80;;;;;;;;;;108719;1297;23113;-24
2022/08/28 01:43:25;;;;;;;11.30;6.50;;;;;;;;;;108637;1299;22541;-25
2022/08/28 01:45:52;;;;;;;11.70;6.00;;;;;;;;;;108595;1298;23201;-28
2022/08/28 01:48:19;;;;;;;9.10;6.00;;;;;;;;;;108703;1297;23355;-24
2022/08/28 01:50:44;;;;;;;6.70;5.90;;;;;;;;;;108715;1297;22272;-28
2022/08/28 01:53:12;;;;;;;12.40;6.00;;;;;;;;;;108692;1297;22519;-26
2022/08/28 01:55:38;;;;;;;7.60;5.90;;;;;;;;;;108691;1297;23157;-24
2022/08/28 01:58:04;;;;;;;7.20;5.60;;;;;;;;;;108641;1298;23125;-24
2022/08/28 02:00:29;;;;;;;7.90;6.10;;;;;;;;;;108726;1297;22592;-27
2022/08/28 02:02:55;;;;;;;7.60;6.70;;;;;;;;;;108728;1297;22390;-27
2022/08/28 02:05:21;;;;;;;11.00;6.20;;;;;;;;;;108288;1297;22502;-24
2022/08/28 02:07:47;;;;;;;12.60;7.60;;;;;;;;;;108547;1299;23256;-24
2022/08/28 02:10:13;;;;;;;8.10;7.10;;;;;;;;;;108664;1304;22568;-25
2022/08/28 02:12:39;;;;;;;9.30;7.30;;;;;;;;;;108710;1297;22537;-27
2022/08/28 02:15:06;;;;;;;15.10;6.30;;;;;;;;;;108730;1297;23324;-24
2022/08/28 02:17:37;;;;;;;8.30;7.50;;;;;;;;;;108313;1304;22453;-29
2022/08/28 02:20:03;;;;;;;7.60;6.40;;;;;;;;;;108620;1298;23380;-26
2022/08/28 02:22:29;;;;;;;7.20;6.50;;;;;;;;;;108732;1297;22546;-26
2022/08/28 02:24:54;;;;;;;13.50;8.70;;;;;;;;;;108593;1304;22265;-30
2022/08/28 02:27:20;;;;;;;6.70;5.90;;;;;;;;;;108754;1297;22401;-26
2022/08/28 02:29:46;;;;;;;7.70;6.70;;;;;;;;;;108679;1297;22510;-30
2022/08/28 02:32:11;;;;;;;9.20;8.20;;;;;;;;;;108521;1299;23605;-26
2022/08/28 02:34:37;;;;;;;9.30;8.00;;;;;;;;;;108734;1304;22414;-30
2022/08/28 02:37:04;;;;;;;9.00;6.50;;;;;;;;;;108733;1302;22545;-26
2022/08/28 02:39:30;;;;;;;9.20;7.90;;;;;;;;;;108729;1297;22529;-26
2022/08/28 02:41:55;;;;;;;9.20;7.20;;;;;;;;;;107997;1297;1002862;-26
2022/08/28 02:44:21;;;;;;;13.50;7.80;;;;;;;;;;108743;1304;23225;-28
2022/08/28 02:46:47;;;;;;;9.10;7.80;;;;;;;;;;108704;1304;23003;-26
2022/08/28 02:49:13;;;;;;;9.70;8.30;;;;;;;;;;108721;1297;23359;-29
2022/08/28 02:51:39;;;;;;;8.80;6.80;;;;;;;;;;108743;1297;23860;-29
2022/08/28 02:54:04;;;;;;;10.30;7.20;;;;;;;;;;108737;1304;23131;-30
2022/08/28 02:56:30;;;;;;;10.30;7.50;;;;;;;;;;108744;1297;22536;-26
2022/08/28 02:58:55;;;;;;;15.70;9.60;;;;;;;;;;108606;1297;22394;-30
2022/08/28 03:01:21;;;;;;;17.60;9.10;;;;;;;;;;108753;1297;22463;-30
2022/08/28 03:03:46;;;;;;;11.60;9.40;;;;;;;;;;108725;1297;22441;-30
2022/08/28 03:06:12;;;;;;;15.70;9.40;;;;;;;;;;108352;1297;23220;-25
2022/08/28 03:08:38;;;;;;;18.30;11.00;;;;;;;;;;108697;1297;23078;-28
2022/08/28 03:11:04;;;;;;;12.60;9.90;;;;;;;;;;108738;1297;22397;-25
2022/08/28 03:13:29;;;;;;;18.80;10.60;;;;;;;;;;108758;1297;23265;-24
2022/08/28 03:15:55;;;;;;;16.50;11.80;;;;;;;;;;108732;1304;22608;-24
2022/08/28 03:18:21;;;;;;;11.80;9.90;;;;;;;;;;108743;1297;22252;-28
2022/08/28 03:20:46;;;;;;;12.00;9.30;;;;;;;;;;108590;1305;22552;-28
2022/08/28 03:25:41;;;;;;;17.30;11.50;;;;;;;;;;108718;1298;22465;-24
2022/08/28 03:28:07;;;;;;;18.80;12.90;;;;;;;;;;108637;1304;23335;-24
2022/08/28 03:30:32;;;;;;;13.70;10.20;;;;;;;;;;108562;1297;23109;-28
2022/08/28 03:32:58;;;;;;;14.00;10.80;;;;;;;;;;108730;1297;23172;-28
2022/08/28 03:35:23;;;;;;;17.20;12.20;;;;;;;;;;108717;1297;23331;-24
2022/08/28 03:37:49;;;;;;;13.50;9.40;;;;;;;;;;108745;1297;22450;-24
2022/08/28 03:40:14;;;;;;;15.80;11.20;;;;;;;;;;108720;1298;23227;-28
2022/08/28 03:42:40;;;;;;;16.70;13.00;;;;;;;;;;108720;1297;23121;-28
2022/08/28 03:45:07;;;;;;;21.80;13.30;;;;;;;;;;108732;1297;23222;-26
2022/08/28 03:47:34;;;;;;;17.00;10.30;;;;;;;;;;108598;1297;22448;-27
2022/08/28 03:49:59;;;;;;;16.50;10.70;;;;;;;;;;108732;1304;22404;-26
2022/08/28 03:52:25;;;;;;;17.80;9.90;;;;;;;;;;108602;1298;22531;-30
2022/08/28 03:54:50;;;;;;;22.10;14.30;;;;;;;;;;108590;1304;22593;-30
2022/08/28 03:57:18;;;;;;;25.50;12.80;;;;;;;;;;108344;1298;23247;-30
2022/08/28 03:59:44;;;;;;;22.30;14.00;;;;;;;;;;108674;1298;22541;-30
2022/08/28 04:02:09;;;;;;;17.70;12.10;;;;;;;;;;108715;1297;22540;-27
2022/08/28 04:04:35;;;;;;;28.70;12.00;;;;;;;;;;108694;1297;22526;-30
2022/08/28 04:07:00;;;;;;;32.10;11.90;;;;;;;;;;108504;1298;23104;-30
2022/08/28 04:09:26;;;;;;;18.00;12.80;;;;;;;;;;108726;1297;23280;-30
2022/08/28 04:11:52;;;;;;;21.00;11.40;;;;;;;;;;108749;1297;23190;-30
2022/08/28 04:14:18;;;;;;;18.40;11.20;;;;;;;;;;108719;1297;23095;-30
2022/08/28 04:16:43;;;;;;;15.00;10.20;;;;;;;;;;108753;1297;23183;-30
2022/08/28 04:19:09;;;;;;;33.00;12.60;;;;;;;;;;108661;1304;22408;-30
2022/08/28 04:21:35;;;;;;;32.20;11.00;;;;;;;;;;108745;1296;23098;-27
2022/08/28 04:24:00;;;;;;;40.60;12.90;;;;;;;;;;108717;1297;23174;-28
2022/08/28 04:26:26;;;;;;;20.50;11.40;;;;;;;;;;108714;1297;24100;-28
2022/08/28 04:28:53;;;;;;;29.00;13.70;;;;;;;;;;108357;1297;23687;-28
2022/08/28 04:31:19;;;;;;;16.40;11.10;;;;;;;;;;108597;1297;23281;-24
2022/08/28 04:33:44;;;;;;;50.10;13.70;;;;;;;;;;108709;1297;23306;-28
2022/08/28 04:36:11;;;;;;;27.80;12.00;;;;;;;;;;108720;1304;22504;-24
2022/08/28 04:38:37;;;;;;;23.70;12.70;;;;;;;;;;108717;1297;22460;-28
2022/08/28 04:41:03;;;;;;;29.40;12.70;;;;;;;;;;108756;1296;23096;-24
2022/08/28 04:43:28;;;;;;;22.40;13.10;;;;;;;;;;108650;1297;22903;-28
2022/08/28 04:46:26;;;;;;;40.40;14.20;;;;;;;;;;108726;1298;22454;-28
2022/08/28 04:49:24;;;;;;;33.50;12.40;;;;;;;;;;108686;1298;23274;-28
2022/08/28 04:52:22;;;;;;;19.90;10.20;;;;;;;;;;108731;1298;23545;-28
2022/08/28 04:55:19;;;;;;;30.80;13.10;;;;;;;;;;108653;1299;22516;-25
2022/08/28 04:57:46;;;;;;;35.80;13.80;;;;;;;;;;108712;1299;22525;-24
2022/08/28 05:00:12;;;;;;;51.60;14.00;;;;;;;;;;108701;1297;23177;-28
2022/08/28 05:02:37;;;;;;;35.30;14.50;;;;;;;;;;108550;1304;23185;-28
2022/08/28 05:05:03;;;;;;;25.50;15.60;;;;;;;;;;108716;1297;23187;-28
2022/08/28 05:07:29;;;;;;;23.00;12.90;;;;;;;;;;108728;1297;23167;-28
2022/08/28 05:09:55;;;;;;;32.90;12.70;;;;;;;;;;108727;1297;23009;-28
2022/08/28 05:12:21;;;;;;;34.00;15.30;;;;;;;;;;108710;1297;23458;-28
2022/08/28 05:14:47;;;;;;;28.20;14.40;;;;;;;;;;108619;1297;22536;-24
2022/08/28 05:17:13;;;;;;;41.00;14.30;;;;;;;;;;108584;1298;23200;-28
2022/08/28 05:19:38;;;;;;;29.20;12.60;;;;;;;;;;108404;1297;23290;-28
2022/08/28 05:22:04;;;;;;;25.10;13.40;;;;;;;;;;108742;1297;23125;-24
2022/08/28 05:24:29;;;;;;;25.40;13.90;;;;;;;;;;108771;1297;23306;-24
2022/08/28 05:26:55;;;;;;;32.20;12.70;;;;;;;;;;108664;1297;23274;-28
2022/08/28 05:29:21;;;;;;;22.10;12.00;;;;;;;;;;108719;1297;22541;-27
2022/08/28 05:31:46;;;;;;;39.90;15.10;;;;;;;;;;108695;1297;22387;-28
2022/08/28 05:34:12;;;;;;;26.70;15.20;;;;;;;;;;108738;1297;25238;-28
2022/08/28 05:36:38;;;;;;;37.40;13.90;;;;;;;;;;107965;1298;22467;-25
2022/08/28 05:39:05;;;;;;;21.40;13.40;;;;;;;;;;107834;1302;23275;-28
2022/08/28 05:41:30;;;;;;;29.90;11.30;;;;;;;;;;108762;1297;23122;-29
2022/08/28 05:43:57;;;;;;;30.00;17.50;;;;;;;;;;108768;1297;22319;-25
2022/08/28 05:46:23;;;;;;;21.00;12.60;;;;;;;;;;108724;1297;23077;-28
2022/08/28 05:48:48;;;;;;;39.90;15.40;;;;;;;;;;108711;1297;23240;-28
2022/08/28 05:51:15;;;;;;;27.40;16.20;;;;;;;;;;108330;1299;22533;-25
2022/08/28 05:53:41;;;;;;;27.90;13.70;;;;;;;;;;108696;1297;22389;-26
2022/08/28 05:56:07;;;;;;;32.20;16.10;;;;;;;;;;108747;1297;23201;-25
2022/08/28 05:58:34;;;;;;;31.90;16.60;;;;;;;;;;108626;1297;22362;-29
2022/08/28 06:01:03;;;;;;;20.60;12.70;;;;;;;;;;108621;1298;23223;-25
2022/08/28 06:03:28;;;;;;;32.50;19.00;;;;;;;;;;108487;1304;23159;-24
2022/08/28 06:05:54;;;;;;;33.40;17.10;;;;;;;;;;108622;1297;23362;-29
2022/08/28 06:08:22;;;;;;;29.40;17.70;;;;;;;;;;108644;1297;23083;-24
2022/08/28 06:10:48;;;;;;;30.00;16.10;;;;;;;;;;108750;1297;23278;-29
2022/08/28 06:13:13;;;;;;;29.90;17.90;;;;;;;;;;108724;1297;22551;-29
2022/08/28 06:15:40;;;;;;;33.70;17.10;;;;;;;;;;108685;1297;22574;-25
2022/08/28 06:18:06;;;;;;;25.50;13.40;;;;;;;;;;108536;1304;22620;-29
2022/08/28 06:20:36;;;;;;;30.30;17.60;;;;;;;;;;108647;1297;22616;-29
2022/08/28 06:23:01;;;;;;;27.30;16.80;;;;;;;;;;108686;1304;23636;-25
2022/08/28 06:25:27;;;;;;;41.00;21.00;;;;;;;;;;108474;1297;23154;-29
2022/08/28 06:27:52;;;;;;;29.10;17.80;;;;;;;;;;108462;1298;23340;-25
2022/08/28 06:30:18;;;;;;;44.80;21.60;;;;;;;;;;108689;1304;22527;-25
2022/08/28 06:32:43;;;;;;;37.00;18.30;;;;;;;;;;108699;1299;23164;-25
2022/08/28 06:35:09;;;;;;;32.00;17.20;;;;;;;;;;108707;1297;23264;-25
2022/08/28 06:37:34;;;;;;;35.90;19.90;;;;;;;;;;108662;1296;23311;-29
2022/08/28 06:40:00;;;;;;;34.30;19.20;;;;;;;;;;108743;1297;23070;-29
2022/08/28 06:42:27;;;;;;;34.30;18.80;;;;;;;;;;108534;1298;22519;-29
2022/08/28 06:44:52;;;;;;;32.40;17.40;;;;;;;;;;108286;1298;22568;-25
2022/08/28 06:47:18;;;;;;;29.40;16.90;;;;;;;;;;108616;1297;23617;-25
2022/08/28 06:49:43;;;;;;;27.00;15.20;;;;;;;;;;108373;1298;23332;-30
2022/08/28 06:52:09;;;;;;;33.40;20.90;;;;;;;;;;108451;1298;23196;-31
2022/08/28 06:54:34;;;;;;;38.30;22.30;;;;;;;;;;108533;1304;22843;-29
2022/08/28 06:57:00;;;;;;;37.10;19.20;;;;;;;;;;107911;1297;25290;-27
2022/08/28 06:59:26;;;;;;;40.70;20.50;;;;;;;;;;108523;1304;23233;-30
2022/08/28 07:01:53;;;;;;;32.80;17.60;;;;;;;;;;108683;1297;22439;-30
2022/08/28 07:04:18;;;;;;;30.50;17.60;;;;;;;;;;108632;1297;22558;-26
2022/08/28 07:06:44;;;;;;;42.20;22.00;;;;;;;;;;108056;1298;23203;-30
2022/08/28 07:09:10;;;;;;;28.50;18.20;;;;;;;;;;108350;1297;23183;-26
2022/08/28 07:11:35;;;;;;;22.80;16.50;;;;;;;;;;108549;1283;23274;-30
2022/08/28 07:14:01;;;;;;;23.00;15.40;;;;;;;;;;108661;1297;22564;-31
2022/08/28 07:16:28;;;;;;;23.90;15.50;;;;;;;;;;108444;1304;22850;-30
2022/08/28 07:18:54;;;;;;;20.00;15.80;;;;;;;;;;108083;1304;22557;-30
2022/08/28 07:21:20;;;;;;;33.50;18.80;;;;;;;;;;108501;1297;22561;-25
2022/08/28 07:23:46;;;;;;;29.00;18.60;;;;;;;;;;107882;1298;653361;-27
2022/08/28 07:26:12;;;;;;;29.70;18.20;;;;;;;;;;108494;1304;22524;-30
2022/08/28 07:28:38;;;;;;;29.20;17.30;;;;;;;;;;108644;1304;23216;-24
2022/08/28 07:31:05;;;;;;;25.50;19.10;;;;;;;;;;108444;1297;22537;-27
2022/08/28 07:33:30;;;;;;;20.30;15.80;;;;;;;;;;108542;1297;22442;-27
2022/08/28 07:35:56;;;;;;;25.30;16.10;;;;;;;;;;108582;1297;22592;-31
2022/08/28 07:38:23;;;;;;;20.20;15.30;;;;;;;;;;108654;1297;22536;-27
2022/08/28 07:40:48;;;;;;;24.10;16.20;;;;;;;;;;108097;1304;22538;-29
2022/08/28 07:45:43;;;;;;;27.50;15.00;;;;;;;;;;108638;1299;22528;-25
2022/08/28 07:48:09;;;;;;;33.20;17.00;;;;;;;;;;108570;1297;23189;-29
2022/08/28 07:50:34;;;;;;;18.40;14.50;;;;;;;;;;108542;1298;23108;-29
2022/08/28 07:53:00;;;;;;;28.20;16.20;;;;;;;;;;108293;1298;23164;-26
2022/08/28 07:55:28;;;;;;;21.40;17.20;;;;;;;;;;107926;1297;1002428;-30
2022/08/28 07:57:54;;;;;;;29.10;13.90;;;;;;;;;;108616;1297;22541;-26
2022/08/28 08:00:20;;;;;;;20.40;15.20;;;;;;;;;;108130;1297;25296;-29
2022/08/28 08:02:45;;;;;;;26.20;16.60;;;;;;;;;;107925;1298;23157;-27
2022/08/28 08:05:11;;;;;;;22.60;18.00;;;;;;;;;;108635;1298;23221;-27
2022/08/28 08:07:38;;;;;;;18.60;13.20;;;;;;;;;;108690;1297;23331;-26
2022/08/28 08:10:05;;;;;;;29.60;16.20;;;;;;;;;;108655;1297;23203;-29
2022/08/28 08:12:32;;;;;;;23.30;16.50;;;;;;;;;;108670;1297;23201;-28
2022/08/28 08:14:58;;;;;;;19.30;14.70;;;;;;;;;;108680;1297;23204;-30
2022/08/28 08:17:23;;;;;;;25.70;18.20;;;;;;;;;;108300;1304;23559;-25
2022/08/28 08:19:49;;;;;;;26.70;17.00;;;;;;;;;;108628;1304;22548;-29
2022/08/28 08:22:15;;;;;;;27.90;17.90;;;;;;;;;;108529;1297;22598;-29
2022/08/28 08:24:41;;;;;;;26.30;15.40;;;;;;;;;;108552;1304;23206;-29
2022/08/28 08:27:06;;;;;;;24.50;16.50;;;;;;;;;;108608;1304;22967;-25
2022/08/28 08:29:35;;;;;;;24.50;17.60;;;;;;;;;;108214;1297;23341;-26
2022/08/28 08:32:03;;;;;;;23.00;16.00;;;;;;;;;;108546;1304;23219;-25
2022/08/28 08:34:30;;;;;;;15.20;11.50;;;;;;;;;;108505;1297;22750;-25
2022/08/28 08:36:56;;;;;;;24.60;17.90;;;;;;;;;;108698;1296;23181;-29
2022/08/28 08:39:21;;;;;;;20.50;14.10;;;;;;;;;;107928;1298;1002565;-25
2022/08/28 08:41:50;;;;;;;19.70;15.60;;;;;;;;;;108666;1296;23789;-25
2022/08/28 08:44:34;;;;;;;26.10;14.70;;;;;;;;;;108535;1297;22505;-25
2022/08/28 08:47:03;;;;;;;20.90;17.00;;;;;;;;;;107921;1297;1002992;-29
2022/08/28 08:49:30;;;;;;;18.70;15.00;;;;;;;;;;108687;1297;23084;-25
2022/08/28 08:51:56;;;;;;;20.60;14.70;;;;;;;;;;108516;1304;23153;-26
2022/08/28 08:54:21;;;;;;;18.60;13.20;;;;;;;;;;108133;1304;22454;-29
2022/08/28 08:56:47;;;;;;;24.70;14.70;;;;;;;;;;108423;1297;23388;-25
2022/08/28 08:59:14;;;;;;;16.40;13.10;;;;;;;;;;108320;1304;23253;-28
2022/08/28 09:01:43;;;;;;;20.00;14.90;;;;;;;;;;108532;1298;23132;-28
2022/08/28 09:04:21;;;;;;;15.60;12.60;;;;;;;;;;108277;1297;22811;-28
2022/08/28 09:06:49;;;;;;;16.00;12.90;;;;;;;;;;108599;1297;24451;-24
2022/08/28 09:09:16;;;;;;;13.20;11.80;;;;;;;;;;108709;1298;23128;-25
2022/08/28 09:11:42;;;;;;;15.40;12.00;;;;;;;;;;108518;1298;23225;-28
2022/08/28 09:14:12;;;;;;;14.50;9.60;;;;;;;;;;108439;1298;22530;-28
2022/08/28 09:16:39;;;;;;;14.10;10.60;;;;;;;;;;108311;1297;22989;-28
2022/08/28 09:19:05;;;;;;;14.60;11.60;;;;;;;;;;108687;1304;22560;-28
2022/08/28 09:21:31;;;;;;;14.50;10.40;;;;;;;;;;108682;1299;23337;-25
2022/08/28 09:23:59;;;;;;;18.40;10.50;;;;;;;;;;108705;1299;22521;-24
2022/08/28 09:26:24;;;;;;;13.30;10.60;;;;;;;;;;108218;1297;25193;-28
2022/08/28 09:28:53;;;;;;;12.80;9.70;;;;;;;;;;108307;1299;22534;-29
2022/08/28 09:31:30;;;;;;;8.60;7.60;;;;;;;;;;108732;1297;22438;-29
2022/08/28 09:33:56;;;;;;;7.60;5.60;;;;;;;;;;107918;1283;1002851;-26
2022/08/28 09:36:24;;;;;;;14.30;9.40;;;;;;;;;;108583;1298;22553;-29
2022/08/28 09:38:53;;;;;;;13.90;8.10;;;;;;;;;;108562;1298;22524;-29
2022/08/28 09:43:48;;;;;;;14.50;8.70;;;;;;;;;;108186;1298;23302;-29
2022/08/28 09:46:18;;;;;;;14.70;10.80;;;;;;;;;;108694;1297;23146;-25
2022/08/28 09:48:45;;;;;;;7.70;6.80;;;;;;;;;;108590;1304;22535;-26
2022/08/28 09:51:12;;;;;;;8.90;7.30;;;;;;;;;;108518;1297;22529;-25
2022/08/28 09:53:41;;;;;;;9.70;8.60;;;;;;;;;;108553;1299;22542;-29
2022/08/28 09:56:09;;;;;;;12.30;9.30;;;;;;;;;;108652;1296;22562;-25
2022/08/28 09:58:36;;;;;;;13.80;10.60;;;;;;;;;;108587;1297;22520;-25
2022/08/28 10:01:05;;;;;;;9.10;6.60;;;;;;;;;;108601;1298;23288;-29
2022/08/28 10:03:34;;;;;;;7.70;6.90;;;;;;;;;;108621;1297;22443;-25
2022/08/28 10:06:03;;;;;;;15.10;10.30;;;;;;;;;;108370;1297;22532;-28
2022/08/28 10:08:32;;;;;;;10.40;9.40;;;;;;;;;;108432;1298;23321;-25
2022/08/28 10:10:59;;;;;;;13.50;11.50;;;;;;;;;;108276;1297;23118;-24
2022/08/28 10:13:28;;;;;;;13.20;9.30;;;;;;;;;;108678;1297;23152;-28
2022/08/28 10:15:56;;;;;;;7.10;6.00;;;;;;;;;;108569;1297;22093;-28
2022/08/28 10:18:30;;;;;;;11.70;9.00;;;;;;;;;;108447;1298;23194;-24
2022/08/28 10:21:01;;;;;;;9.60;8.40;;;;;;;;;;108678;1297;23128;-28
2022/08/28 10:23:46;;;;;;;9.70;7.80;;;;;;;;;;108586;1298;25305;-25
2022/08/28 10:26:13;;;;;;;13.30;10.20;;;;;;;;;;108701;1298;23393;-26
2022/08/28 10:28:43;;;;;;;14.60;9.40;;;;;;;;;;108685;1304;22933;-29
2022/08/28 10:31:14;;;;;;;12.00;10.30;;;;;;;;;;108702;1296;22933;-26
2022/08/28 10:33:43;;;;;;;9.40;8.20;;;;;;;;;;108669;1304;22567;-30
2022/08/28 10:36:11;;;;;;;74.30;12.10;;;;;;;;;;108496;1297;22571;-23
2022/08/28 10:38:38;;;;;;;12.80;11.20;;;;;;;;;;108507;1298;22513;-24
2022/08/28 10:41:07;;;;;;;10.00;9.00;;;;;;;;;;108291;1299;22454;-28
2022/08/28 10:43:33;;;;;;;10.00;8.70;;;;;;;;;;108483;1302;22847;-25
2022/08/28 10:46:01;;;;;;;11.00;9.90;;;;;;;;;;108686;1297;22566;-28
2022/08/28 10:48:28;;;;;;;9.70;8.60;;;;;;;;;;108669;1304;25219;-28
2022/08/28 10:50:55;;;;;;;16.40;8.70;;;;;;;;;;108684;1297;22527;-25
2022/08/28 10:53:22;;;;;;;10.50;7.60;;;;;;;;;;108713;1297;22444;-28
2022/08/28 10:55:57;;;;;;;10.90;8.50;;;;;;;;;;108699;1297;22578;-28
2022/08/28 10:58:23;;;;;;;10.70;9.30;;;;;;;;;;108744;1297;22531;-24
2022/08/28 11:00:49;;;;;;;8.80;7.20;;;;;;;;;;108610;1299;23176;-28
2022/08/28 11:03:16;;;;;;;7.90;7.30;;;;;;;;;;108608;1299;23407;-24
2022/08/28 11:05:47;;;;;;;11.90;8.20;;;;;;;;;;108600;1299;23139;-24
2022/08/28 11:08:20;;;;;;;8.00;7.30;;;;;;;;;;108712;1297;22400;-28
2022/08/28 11:10:47;;;;;;;9.40;8.50;;;;;;;;;;108410;1305;22543;-25
2022/08/28 11:13:12;;;;;;;13.20;9.80;;;;;;;;;;108652;1298;22545;-27
2022/08/28 11:15:39;;;;;;;10.60;9.00;;;;;;;;;;108747;1297;22539;-24
2022/08/28 11:18:08;;;;;;;11.60;8.20;;;;;;;;;;108705;1298;22334;-27
2022/08/28 11:20:34;;;;;;;9.70;8.80;;;;;;;;;;108748;1299;22435;-24
2022/08/28 11:23:06;;;;;;;8.50;7.60;;;;;;;;;;108718;1298;23186;-24
2022/08/28 11:25:32;;;;;;;9.50;7.30;;;;;;;;;;108638;1297;22519;-23
2022/08/28 11:28:17;;;;;;;10.30;7.60;;;;;;;;;;108367;1298;23077;-24
2022/08/28 11:30:45;;;;;;;12.00;9.00;;;;;;;;;;108592;1297;23328;-24
2022/08/28 11:33:30;;;;;;;9.00;7.70;;;;;;;;;;108254;1299;23605;-25
2022/08/28 11:35:56;;;;;;;9.70;7.00;;;;;;;;;;108640;1299;22972;-26
2022/08/28 11:38:41;;;;;;;11.80;8.70;;;;;;;;;;108496;1304;23303;-30
2022/08/28 11:41:09;;;;;;;8.90;7.60;;;;;;;;;;108680;1298;22584;-26
2022/08/28 11:43:35;;;;;;;9.00;8.20;;;;;;;;;;108713;1289;22557;-30
2022/08/28 11:46:01;;;;;;;7.60;6.60;;;;;;;;;;108723;1297;22527;-26
2022/08/28 11:48:30;;;;;;;11.40;9.00;;;;;;;;;;108722;1298;22485;-30
2022/08/28 11:50:57;;;;;;;9.00;7.20;;;;;;;;;;108732;1304;22461;-30
2022/08/28 11:53:25;;;;;;;7.90;6.60;;;;;;;;;;108500;1298;25203;-27
2022/08/28 11:55:54;;;;;;;12.60;7.30;;;;;;;;;;108562;1289;23612;-23
2022/08/28 11:58:23;;;;;;;7.40;6.60;;;;;;;;;;108689;1299;23224;-27
2022/08/28 12:00:52;;;;;;;6.80;6.20;;;;;;;;;;108624;1297;22565;-23
2022/08/28 12:03:21;;;;;;;7.60;6.90;;;;;;;;;;108318;1299;25276;-25
2022/08/28 12:05:49;;;;;;;14.90;7.30;;;;;;;;;;108339;1298;23376;-24
2022/08/28 12:08:18;;;;;;;7.40;5.50;;;;;;;;;;107915;1298;23302;-25
2022/08/28 12:10:45;;;;;;;7.20;6.50;;;;;;;;;;108714;1298;22469;-28
2022/08/28 12:13:10;;;;;;;9.10;6.70;;;;;;;;;;108590;1297;22533;-25
2022/08/28 12:15:37;;;;;;;12.10;8.00;;;;;;;;;;108624;1298;22555;-25
2022/08/28 12:18:04;;;;;;;6.60;5.20;;;;;;;;;;108350;1299;23247;-28
2022/08/28 12:20:33;;;;;;;8.50;6.20;;;;;;;;;;108607;1304;22404;-24
2022/08/28 12:23:00;;;;;;;6.70;6.20;;;;;;;;;;108602;1299;23748;-28
2022/08/28 12:25:29;;;;;;;6.80;6.00;;;;;;;;;;108212;1304;23287;-24
2022/08/28 12:27:55;;;;;;;20.50;6.70;;;;;;;;;;108641;1299;22575;-24
2022/08/28 12:30:25;;;;;;;7.10;6.40;;;;;;;;;;108565;1304;22553;-27
2022/08/28 12:32:54;;;;;;;6.20;5.30;;;;;;;;;;108509;1297;22460;-27
2022/08/28 12:35:20;;;;;;;9.20;6.00;;;;;;;;;;108483;1298;23294;-24
2022/08/28 12:37:49;;;;;;;6.60;5.70;;;;;;;;;;107998;1297;22530;-24
2022/08/28 12:40:18;;;;;;;10.30;7.30;;;;;;;;;;108580;1297;23413;-24
2022/08/28 12:42:45;;;;;;;6.90;6.10;;;;;;;;;;108637;1298;23188;-25
2022/08/28 12:45:14;;;;;;;7.70;7.00;;;;;;;;;;108434;1298;22652;-24
2022/08/28 12:47:40;;;;;;;15.40;7.40;;;;;;;;;;108513;1301;23330;-23
2022/08/28 12:50:09;;;;;;;5.60;5.10;;;;;;;;;;108507;1298;23003;-28
2022/08/28 12:52:34;;;;;;;4.50;4.10;;;;;;;;;;108096;1298;22583;-28
2022/08/28 12:55:00;;;;;;;9.50;5.60;;;;;;;;;;108575;1299;23280;-24
2022/08/28 12:57:26;;;;;;;9.50;6.20;;;;;;;;;;108548;1283;22538;-28
2022/08/28 12:59:52;;;;;;;6.40;4.80;;;;;;;;;;108032;1304;22541;-26
2022/08/28 13:02:21;;;;;;;7.40;6.50;;;;;;;;;;107908;1298;23181;-25
2022/08/28 13:04:50;;;;;;;7.50;6.50;;;;;;;;;;108378;1298;22463;-29
2022/08/28 13:07:16;;;;;;;6.10;5.60;;;;;;;;;;108335;1299;23017;-30
2022/08/28 13:09:44;;;;;;;7.30;5.20;;;;;;;;;;107776;1304;22523;-25
2022/08/28 13:12:15;;;;;;;5.40;4.90;;;;;;;;;;108385;1298;22893;-28
2022/08/28 13:14:43;;;;;;;5.80;4.60;;;;;;;;;;108433;1302;23237;-28
2022/08/28 13:17:09;;;;;;;9.40;5.40;;;;;;;;;;108511;1299;23214;-28
2022/08/28 13:19:35;;;;;;;5.00;4.50;;;;;;;;;;108396;1297;22568;-25
2022/08/28 13:22:04;;;;;;;4.80;4.30;;;;;;;;;;108360;1299;23220;-29
2022/08/28 13:24:39;;;;;;;8.10;6.30;;;;;;;;;;107828;1297;22451;-24
2022/08/28 13:27:06;;;;;;;6.40;5.40;;;;;;;;;;108507;1304;22412;-24
2022/08/28 13:29:31;;;;;;;5.70;5.10;;;;;;;;;;108606;1299;22681;-24
2022/08/28 13:31:59;;;;;;;3.60;3.30;;;;;;;;;;108651;1298;23011;-29
2022/08/28 13:34:26;;;;;;;4.60;3.80;;;;;;;;;;108268;1297;23114;-29
2022/08/28 13:36:52;;;;;;;4.80;4.10;;;;;;;;;;108554;1299;22882;-28
2022/08/28 13:39:18;;;;;;;6.30;4.40;;;;;;;;;;108690;1298;22534;-29
2022/08/28 13:41:45;;;;;;;3.10;2.80;;;;;;;;;;108675;1297;22531;-25
2022/08/28 13:44:14;;;;;;;6.10;4.50;;;;;;;;;;108623;1297;22426;-25
2022/08/28 13:46:40;;;;;;;3.60;3.30;;;;;;;;;;108684;1304;22530;-29
2022/08/28 13:49:06;;;;;;;4.10;3.70;;;;;;;;;;108779;1297;22541;-29
2022/08/28 13:51:31;;;;;;;4.40;4.00;;;;;;;;;;108685;1304;22521;-25
2022/08/28 13:53:57;;;;;;;5.00;2.10;;;;;;;;;;108728;1304;23755;-25
2022/08/28 13:56:23;;;;;;;3.50;3.20;;;;;;;;;;108187;1297;22589;-29
2022/08/28 13:58:49;;;;;;;3.30;2.20;;;;;;;;;;108193;1304;22526;-29
2022/08/28 14:01:16;;;;;;;2.30;1.90;;;;;;;;;;108641;1282;26692;-25
2022/08/28 14:03:41;;;;;;;3.80;2.70;;;;;;;;;;108439;1297;23348;-26
2022/08/28 14:06:10;;;;;;;3.60;2.10;;;;;;;;;;107941;1297;23389;-26
2022/08/28 14:08:36;;;;;;;2.10;1.70;;;;;;;;;;108702;1298;22524;-29
2022/08/28 14:11:01;;;;;;;3.70;3.10;;;;;;;;;;108688;1297;22529;-29
2022/08/28 14:13:27;;;;;;;1.70;1.40;;;;;;;;;;108680;1296;22549;-29
2022/08/28 14:15:53;;;;;;;2.30;2.00;;;;;;;;;;108578;1304;22411;-26
2022/08/28 14:18:19;;;;;;;3.50;1.80;;;;;;;;;;108728;1297;23209;-26
2022/08/28 14:20:45;;;;;;;1.70;1.30;;;;;;;;;;108661;1298;22534;-29
2022/08/28 14:23:10;;;;;;;1.40;1.30;;;;;;;;;;108733;1297;23138;-25
2022/08/28 14:25:39;;;;;;;2.00;1.70;;;;;;;;;;108716;1304;22552;-25